createdAt,value
2023-03-02T00:00:16.879Z,69.20
2023-03-02T00:02:47.022Z,70.90
2023-03-02T00:05:15.230Z,70.10
2023-03-02T00:07:43.389Z,71.10
2023-03-02T00:10:12.654Z,70.20
2023-03-02T00:12:40.940Z,72.30
2023-03-02T00:15:10.488Z,72.20
2023-03-02T00:17:38.479Z,71.50
2023-03-02T00:20:11.229Z,72.20
2023-03-02T00:22:39.744Z,73.40
2023-03-02T00:25:13.280Z,71.30
2023-03-02T00:27:41.789Z,71.10
2023-03-02T00:30:11.981Z,70.00
2023-03-02T00:32:40.033Z,71.30
2023-03-02T00:35:10.757Z,71.90
2023-03-02T00:37:39.841Z,73.80
2023-03-02T00:40:10.564Z,72.50
2023-03-02T00:42:39.525Z,72.30
2023-03-02T00:45:08.712Z,72.80
2023-03-02T00:47:38.136Z,73.70
2023-03-02T00:50:08.242Z,73.60
2023-03-02T00:52:37.967Z,73.80
2023-03-02T00:55:07.625Z,73.20
2023-03-02T00:57:35.588Z,74.20
2023-03-02T01:00:04.869Z,75.40
2023-03-02T01:02:33.235Z,76.10
2023-03-02T01:05:03.326Z,76.10
2023-03-02T01:07:31.581Z,77.00
2023-03-02T01:10:01.138Z,76.60
2023-03-02T01:12:29.349Z,77.20
2023-03-02T01:15:00.380Z,77.00
2023-03-02T01:17:29.213Z,77.90
2023-03-02T01:19:57.588Z,78.10
2023-03-02T01:22:26.245Z,76.90
2023-03-02T01:24:54.288Z,78.50
2023-03-02T01:27:23.796Z,80.20
2023-03-02T01:29:52.062Z,79.60
2023-03-02T01:32:21.163Z,80.20
2023-03-02T01:34:49.136Z,80.20
2023-03-02T01:37:17.299Z,80.60
2023-03-02T01:39:45.298Z,78.70
2023-03-02T01:42:13.653Z,78.80
2023-03-02T01:44:46.491Z,78.80
2023-03-02T01:47:22.939Z,81.60
2023-03-02T01:49:54.288Z,82.20
2023-03-02T01:52:24.068Z,82.10
2023-03-02T01:54:54.712Z,82.90
2023-03-02T01:57:26.213Z,83.20
2023-03-02T02:00:01.169Z,84.20
2023-03-02T02:02:30.204Z,82.80
2023-03-02T02:04:59.010Z,80.90
2023-03-02T02:07:27.969Z,82.10
2023-03-02T02:09:56.789Z,83.20
2023-03-02T02:12:25.630Z,81.80
2023-03-02T02:14:56.153Z,83.20
2023-03-02T02:17:24.168Z,84.40
2023-03-02T02:20:05.926Z,86.10
2023-03-02T02:22:43.729Z,84.70
2023-03-02T02:25:23.797Z,85.60
2023-03-02T02:27:54.102Z,85.10
2023-03-02T02:30:23.553Z,85.10
2023-03-02T02:32:54.177Z,84.70
2023-03-02T02:35:27.373Z,82.80
2023-03-02T02:37:58.989Z,83.70
2023-03-02T02:40:43.983Z,83.90
2023-03-02T02:43:15.256Z,86.30
2023-03-02T02:45:43.709Z,87.40
2023-03-02T02:48:18.706Z,89.70
2023-03-02T02:50:49.727Z,89.40
2023-03-02T02:53:22.978Z,89.80
2023-03-02T02:55:54.570Z,90.10
2023-03-02T02:58:32.318Z,90.70
2023-03-02T03:01:01.113Z,90.80
2023-03-02T03:03:31.046Z,91.30
2023-03-02T03:06:00.382Z,92.20
2023-03-02T03:08:53.159Z,93.70
2023-03-02T03:11:24.461Z,93.00
2023-03-02T03:13:58.597Z,94.50
2023-03-02T03:16:29.518Z,95.20
2023-03-02T03:19:00.706Z,96.30
2023-03-02T03:21:29.020Z,95.80
2023-03-02T03:23:57.040Z,96.60
2023-03-02T03:26:25.368Z,97.00
2023-03-02T03:28:57.226Z,96.80
2023-03-02T03:31:27.305Z,97.60
2023-03-02T03:33:56.114Z,97.90
2023-03-02T03:36:24.268Z,98.80
2023-03-02T03:38:52.305Z,99.50
2023-03-02T03:41:20.564Z,99.70
2023-03-02T03:43:48.532Z,99.40
2023-03-02T03:46:18.471Z,99.50
2023-03-02T03:48:47.938Z,99.60
2023-03-02T03:51:16.212Z,99.90
2023-03-02T03:53:47.289Z,99.90
2023-03-02T03:56:15.471Z,99.90
2023-03-02T03:58:43.824Z,99.90
2023-03-02T04:01:14.942Z,99.90
2023-03-02T04:03:44.578Z,99.90
2023-03-02T04:06:26.799Z,99.90
2023-03-02T04:08:55.113Z,99.90
2023-03-02T04:11:23.079Z,99.90
2023-03-02T04:13:52.753Z,99.90
2023-03-02T04:16:20.809Z,99.90
2023-03-02T04:18:50.643Z,99.90
2023-03-02T04:21:19.801Z,99.90
2023-03-02T04:23:50.985Z,99.90
2023-03-02T04:26:19.345Z,99.90
2023-03-02T04:28:51.038Z,99.90
2023-03-02T04:31:22.418Z,99.90
2023-03-02T04:33:51.948Z,99.90
2023-03-02T04:36:20.811Z,99.90
2023-03-02T04:38:49.563Z,99.90
2023-03-02T04:41:19.613Z,99.90
2023-03-02T04:43:47.647Z,99.90
2023-03-02T04:46:19.429Z,99.90
2023-03-02T04:48:47.464Z,99.90
2023-03-02T04:51:25.397Z,99.90
2023-03-02T04:53:54.670Z,99.90
2023-03-02T04:56:23.806Z,99.90
2023-03-02T04:58:52.115Z,99.90
2023-03-02T05:01:21.501Z,99.90
2023-03-02T05:03:49.910Z,99.90
2023-03-02T05:06:21.940Z,99.90
2023-03-02T05:08:50.517Z,99.90
2023-03-02T05:11:23.012Z,99.90
2023-03-02T05:13:51.871Z,99.90
2023-03-02T05:16:20.012Z,99.90
2023-03-02T05:18:48.796Z,99.90
2023-03-02T05:21:19.896Z,99.90
2023-03-02T05:23:48.280Z,99.90
2023-03-02T05:26:16.663Z,99.90
2023-03-02T05:28:48.260Z,99.90
2023-03-02T05:31:20.530Z,99.90
2023-03-02T05:33:48.722Z,99.90
2023-03-02T05:36:31.452Z,99.90
2023-03-02T05:39:01.002Z,99.90
2023-03-02T05:41:29.157Z,99.90
2023-03-02T05:44:00.538Z,99.90
2023-03-02T05:46:30.220Z,99.90
2023-03-02T05:48:58.324Z,99.90
2023-03-02T05:51:26.328Z,99.90
2023-03-02T05:53:54.718Z,99.90
2023-03-02T05:56:24.300Z,99.90
2023-03-02T05:59:25.773Z,99.90
2023-03-02T06:01:58.875Z,99.90
2023-03-02T06:04:27.303Z,99.90
2023-03-02T06:06:55.526Z,99.90
2023-03-02T06:09:23.946Z,99.90
2023-03-02T06:11:54.627Z,99.90
2023-03-02T06:14:22.653Z,99.90
2023-03-02T06:16:51.212Z,99.90
2023-03-02T06:19:19.276Z,99.90
2023-03-02T06:21:47.608Z,99.90
2023-03-02T06:24:16.175Z,99.90
2023-03-02T06:26:44.906Z,99.90
2023-03-02T06:29:17.040Z,99.90
2023-03-02T06:31:45.252Z,99.90
2023-03-02T06:34:13.353Z,99.90
2023-03-02T06:36:41.726Z,99.90
2023-03-02T06:39:18.573Z,99.90
2023-03-02T06:41:48.492Z,99.90
2023-03-02T06:44:18.983Z,99.90
2023-03-02T06:46:47.114Z,99.90
2023-03-02T06:49:15.054Z,99.90
2023-03-02T06:51:43.115Z,99.90
2023-03-02T06:54:13.231Z,99.90
2023-03-02T06:56:44.302Z,99.90
2023-03-02T06:59:12.768Z,99.90
2023-03-02T07:01:42.195Z,99.90
2023-03-02T07:04:10.464Z,99.90
2023-03-02T07:06:38.928Z,99.90
2023-03-02T07:09:07.200Z,99.90
2023-03-02T07:11:35.518Z,99.90
2023-03-02T07:14:04.726Z,99.90
2023-03-02T07:16:35.335Z,99.90
2023-03-02T07:19:07.838Z,99.90
2023-03-02T07:21:35.921Z,99.90
2023-03-02T07:24:03.899Z,99.90
2023-03-02T07:26:33.139Z,99.90
2023-03-02T07:29:02.937Z,99.90
2023-03-02T07:31:31.964Z,99.90
2023-03-02T07:34:00.221Z,99.90
2023-03-02T07:36:30.050Z,99.90
2023-03-02T07:38:58.569Z,99.90
2023-03-02T07:41:27.679Z,99.90
2023-03-02T07:43:57.001Z,98.40
2023-03-02T07:46:25.275Z,98.30
2023-03-02T07:48:54.445Z,97.80
2023-03-02T07:51:22.643Z,95.50
2023-03-02T07:53:52.377Z,93.90
2023-03-02T07:56:20.967Z,90.50
2023-03-02T07:58:49.429Z,90.00
2023-03-02T08:01:18.202Z,90.90
2023-03-02T08:03:46.367Z,90.20
2023-03-02T08:06:14.578Z,89.40
2023-03-02T08:08:43.108Z,90.30
2023-03-02T08:11:17.600Z,85.90
2023-03-02T08:13:46.620Z,83.10
2023-03-02T08:16:16.942Z,84.70
2023-03-02T08:18:45.724Z,82.20
2023-03-02T08:21:16.156Z,84.20
2023-03-02T08:23:44.671Z,85.70
2023-03-02T08:26:17.585Z,87.50
2023-03-02T08:28:46.419Z,82.30
2023-03-02T08:31:15.827Z,80.70
2023-03-02T08:33:48.911Z,81.90
2023-03-02T08:36:19.346Z,80.30
2023-03-02T08:38:50.800Z,80.30
2023-03-02T08:41:25.327Z,78.90
2023-03-02T08:43:55.076Z,77.80
2023-03-02T08:46:23.720Z,77.90
2023-03-02T08:48:52.096Z,77.80
2023-03-02T08:51:23.039Z,74.20
2023-03-02T08:53:53.001Z,75.70
2023-03-02T08:56:25.402Z,74.70
2023-03-02T08:58:56.543Z,74.30
2023-03-02T09:01:30.157Z,73.50
2023-03-02T09:03:59.876Z,70.90
2023-03-02T09:06:29.702Z,72.30
2023-03-02T09:08:58.970Z,71.70
2023-03-02T09:11:29.289Z,72.80
2023-03-02T09:13:57.608Z,71.50
2023-03-02T09:16:26.363Z,71.20
2023-03-02T09:18:54.942Z,70.70
2023-03-02T09:21:23.146Z,70.60
2023-03-02T09:23:53.789Z,68.70
2023-03-02T09:26:21.824Z,67.60
2023-03-02T09:28:51.680Z,68.40
2023-03-02T09:31:19.855Z,67.60
2023-03-02T09:33:47.874Z,68.50
2023-03-02T09:36:20.911Z,68.10
2023-03-02T09:38:49.102Z,67.10
2023-03-02T09:41:49.863Z,66.40
2023-03-02T09:44:42.515Z,65.80
2023-03-02T09:47:33.466Z,65.20
2023-03-02T09:50:14.719Z,66.10
2023-03-02T09:52:51.409Z,64.90
2023-03-02T09:55:23.276Z,65.10
2023-03-02T09:57:53.114Z,63.80
2023-03-02T10:00:28.706Z,64.80
2023-03-02T10:03:11.413Z,62.30
2023-03-02T10:05:46.782Z,62.60
2023-03-02T10:08:18.593Z,64.40
2023-03-02T10:10:51.626Z,63.00
2023-03-02T10:13:26.208Z,63.00
2023-03-02T10:16:09.841Z,61.90
2023-03-02T10:18:42.195Z,61.80
2023-03-02T10:21:21.569Z,61.10
2023-03-02T10:23:57.745Z,62.10
2023-03-02T10:26:39.796Z,60.90
2023-03-02T10:29:33.832Z,60.50
2023-03-02T10:32:13.228Z,61.40
2023-03-02T10:34:41.299Z,60.40
2023-03-02T10:37:15.520Z,59.40
2023-03-02T10:39:44.186Z,60.40
2023-03-02T10:42:16.988Z,59.30
2023-03-02T10:44:49.521Z,59.80
2023-03-02T10:47:24.796Z,60.10
2023-03-02T10:49:53.714Z,58.70
2023-03-02T10:52:23.294Z,58.60
2023-03-02T10:55:02.246Z,58.70
2023-03-02T10:57:36.153Z,58.40
2023-03-02T11:00:14.739Z,58.10
2023-03-02T11:02:52.012Z,58.90
2023-03-02T11:05:30.091Z,58.40
2023-03-02T11:07:59.761Z,58.10
2023-03-02T11:10:31.784Z,58.10
2023-03-02T11:13:01.900Z,57.30
2023-03-02T11:15:37.787Z,57.90
2023-03-02T11:18:15.054Z,58.30
2023-03-02T11:20:46.599Z,57.90
2023-03-02T11:23:19.698Z,57.70
2023-03-02T11:25:53.073Z,57.00
2023-03-02T11:28:46.064Z,56.70
2023-03-02T11:31:25.165Z,56.70
2023-03-02T11:34:23.838Z,56.30
2023-03-02T11:37:07.782Z,56.60
2023-03-02T11:39:55.766Z,56.70
2023-03-02T11:42:30.057Z,56.50
2023-03-02T11:45:01.633Z,56.20
2023-03-02T11:47:32.606Z,55.50
2023-03-02T11:50:05.270Z,54.60
2023-03-02T11:52:37.807Z,55.40
2023-03-02T11:55:15.349Z,54.80
2023-03-02T11:57:48.663Z,55.10
2023-03-02T12:00:30.946Z,54.60
2023-03-02T12:03:10.545Z,54.90
2023-03-02T12:05:40.356Z,55.10
2023-03-02T12:08:29.158Z,54.30
2023-03-02T12:10:59.505Z,53.10
2023-03-02T12:13:29.747Z,53.50
2023-03-02T12:15:57.691Z,53.70
2023-03-02T12:18:55.809Z,53.30
2023-03-02T12:21:28.204Z,53.10
2023-03-02T12:23:59.718Z,52.60
2023-03-02T12:26:34.592Z,52.80
2023-03-02T12:29:06.300Z,52.10
2023-03-02T12:31:43.498Z,52.30
2023-03-02T12:34:35.992Z,52.20
2023-03-02T12:37:14.308Z,52.00
2023-03-02T12:40:10.233Z,51.70
2023-03-02T12:42:54.625Z,52.10
2023-03-02T12:45:36.110Z,51.80
2023-03-02T12:48:14.754Z,51.90
2023-03-02T12:50:44.156Z,52.40
2023-03-02T12:53:20.296Z,51.60
2023-03-02T12:55:48.518Z,51.10
2023-03-02T12:58:20.349Z,51.60
2023-03-02T13:00:53.019Z,51.50
2023-03-02T13:03:21.693Z,51.80
2023-03-02T13:05:49.780Z,51.20
2023-03-02T13:08:24.116Z,51.10
2023-03-02T13:10:54.283Z,51.60
2023-03-02T13:13:26.281Z,50.70
2023-03-02T13:15:57.333Z,51.00
2023-03-02T13:18:31.710Z,50.30
2023-03-02T13:21:00.589Z,51.10
2023-03-02T13:23:32.096Z,50.50
2023-03-02T13:26:01.792Z,50.20
2023-03-02T13:28:31.906Z,50.10
2023-03-02T13:31:02.243Z,50.50
2023-03-02T13:33:31.777Z,50.10
2023-03-02T13:36:00.322Z,49.60
2023-03-02T13:38:35.029Z,49.80
2023-03-02T13:41:03.917Z,49.80
2023-03-02T13:43:36.456Z,49.70
2023-03-02T13:46:06.268Z,48.50
2023-03-02T13:48:34.743Z,49.20
2023-03-02T13:51:04.933Z,49.30
2023-03-02T13:53:38.026Z,48.40
2023-03-02T13:56:06.515Z,49.70
2023-03-02T13:58:39.373Z,48.20
2023-03-02T14:01:07.895Z,48.30
2023-03-02T14:03:35.848Z,47.90
2023-03-02T14:06:05.914Z,48.20
2023-03-02T14:08:35.190Z,48.40
2023-03-02T14:11:05.031Z,47.80
2023-03-02T14:13:38.945Z,47.00
2023-03-02T14:16:07.934Z,46.90
2023-03-02T14:18:40.057Z,47.40
2023-03-02T14:21:13.932Z,46.70
2023-03-02T14:23:43.423Z,46.70
2023-03-02T14:26:28.909Z,46.20
2023-03-02T14:29:05.530Z,46.60
2023-03-02T14:31:34.426Z,46.70
2023-03-02T14:34:02.735Z,46.40
2023-03-02T14:36:33.125Z,46.40
2023-03-02T14:39:06.309Z,45.80
2023-03-02T14:41:43.956Z,46.20
2023-03-02T14:44:19.368Z,46.10
2023-03-02T14:46:47.510Z,46.40
2023-03-02T14:49:15.494Z,46.10
2023-03-02T14:51:45.917Z,45.90
2023-03-02T14:54:20.864Z,46.20
2023-03-02T14:56:50.447Z,46.30
2023-03-02T14:59:18.757Z,46.10
2023-03-02T15:01:46.976Z,45.90
2023-03-02T15:04:15.039Z,46.90
2023-03-02T15:06:44.543Z,47.40
2023-03-02T15:09:17.662Z,46.20
2023-03-02T15:11:45.771Z,45.70
2023-03-02T15:14:13.633Z,45.40
2023-03-02T15:16:42.815Z,46.00
2023-03-02T15:19:11.209Z,46.40
2023-03-02T15:21:44.639Z,47.10
2023-03-02T15:24:13.209Z,46.70
2023-03-02T15:26:42.728Z,47.00
2023-03-02T15:29:10.692Z,46.40
2023-03-02T15:31:38.651Z,47.10
2023-03-02T15:34:07.461Z,47.20
2023-03-02T15:36:35.657Z,46.40
2023-03-02T15:39:04.189Z,46.30
2023-03-02T15:41:32.720Z,46.90
2023-03-02T15:44:02.180Z,46.80
2023-03-02T15:46:30.255Z,47.00
2023-03-02T15:48:58.181Z,47.00
2023-03-02T15:51:26.191Z,46.40
2023-03-02T15:53:54.160Z,46.10
2023-03-02T15:56:22.897Z,46.70
2023-03-02T15:58:51.753Z,46.80
2023-03-02T16:01:21.108Z,46.80
2023-03-02T16:03:49.068Z,46.80
2023-03-02T16:06:17.032Z,47.30
2023-03-02T16:08:45.065Z,47.80
2023-03-02T16:11:18.668Z,47.90
2023-03-02T16:13:46.890Z,48.10
2023-03-02T16:16:14.912Z,48.20
2023-03-02T16:18:44.336Z,48.60
2023-03-02T16:21:14.422Z,48.20
2023-03-02T16:23:42.384Z,48.40
2023-03-02T16:26:12.476Z,48.00
2023-03-02T16:28:40.374Z,48.80
2023-03-02T16:31:10.394Z,49.70
2023-03-02T16:33:39.153Z,50.00
2023-03-02T16:36:09.691Z,50.80
2023-03-02T16:38:38.842Z,50.70
2023-03-02T16:41:13.874Z,51.00
2023-03-02T16:43:46.169Z,50.80
2023-03-02T16:46:14.633Z,50.90
2023-03-02T16:48:43.221Z,50.20
2023-03-02T16:51:13.261Z,50.70
2023-03-02T16:53:41.877Z,52.50
2023-03-02T16:56:10.751Z,51.80
2023-03-02T16:58:39.776Z,50.40
2023-03-02T17:01:09.078Z,50.30
2023-03-02T17:03:37.539Z,50.40
2023-03-02T17:06:07.308Z,50.20
2023-03-02T17:08:37.393Z,50.20
2023-03-02T17:11:05.717Z,51.20
2023-03-02T17:13:33.661Z,52.50
2023-03-02T17:16:01.686Z,52.50
2023-03-02T17:18:31.004Z,51.70
2023-03-02T17:21:00.008Z,51.20
2023-03-02T17:23:29.020Z,50.80
2023-03-02T17:25:58.417Z,51.20
2023-03-02T17:28:26.437Z,52.80
2023-03-02T17:30:54.636Z,53.30
2023-03-02T17:33:22.637Z,52.50
2023-03-02T17:35:51.488Z,51.40
2023-03-02T17:38:19.561Z,50.40
2023-03-02T17:40:47.590Z,49.30
2023-03-02T17:43:16.868Z,48.90
2023-03-02T17:45:45.703Z,48.60
2023-03-02T17:48:13.688Z,48.10
2023-03-02T17:50:41.729Z,47.50
2023-03-02T17:53:09.708Z,47.80
2023-03-02T17:55:38.903Z,47.40
2023-03-02T17:58:06.836Z,47.90
2023-03-02T18:00:36.232Z,47.60
2023-03-02T18:03:04.391Z,47.70
2023-03-02T18:05:32.337Z,46.90
2023-03-02T18:08:00.348Z,46.70
2023-03-02T18:10:28.425Z,46.50
2023-03-02T18:12:56.784Z,46.40
2023-03-02T18:15:27.220Z,46.80
2023-03-02T18:17:56.603Z,46.90
2023-03-02T18:20:24.586Z,46.50
2023-03-02T18:22:52.570Z,46.40
2023-03-02T18:25:20.678Z,48.10
2023-03-02T18:27:48.648Z,48.30
2023-03-02T18:30:17.882Z,48.50
2023-03-02T18:32:45.912Z,47.90
2023-03-02T18:35:16.068Z,47.80
2023-03-02T18:37:44.085Z,49.50
2023-03-02T18:40:13.630Z,49.10
2023-03-02T18:42:41.894Z,48.60
2023-03-02T18:45:11.838Z,48.20
2023-03-02T18:47:39.842Z,49.30
2023-03-02T18:50:09.034Z,49.30
2023-03-02T18:52:38.714Z,48.40
2023-03-02T18:55:08.904Z,48.40
2023-03-02T18:57:38.011Z,48.00
2023-03-02T19:00:08.408Z,47.20
2023-03-02T19:02:36.557Z,47.10
2023-03-02T19:05:04.686Z,46.20
2023-03-02T19:07:32.923Z,45.70
2023-03-02T19:10:02.458Z,46.20
2023-03-02T19:12:30.376Z,47.30
2023-03-02T19:14:59.264Z,46.50
2023-03-02T19:17:27.412Z,46.20
2023-03-02T19:19:55.389Z,45.40
2023-03-02T19:22:23.384Z,44.40
2023-03-02T19:24:51.356Z,44.20
2023-03-02T19:27:20.734Z,43.70
2023-03-02T19:29:48.657Z,43.90
2023-03-02T19:32:16.648Z,43.80
2023-03-02T19:34:44.699Z,44.00
2023-03-02T19:37:12.799Z,44.40
2023-03-02T19:39:41.033Z,43.60
2023-03-02T19:42:09.250Z,43.60
2023-03-02T19:44:38.773Z,44.30
2023-03-02T19:47:06.744Z,44.70
2023-03-02T19:49:34.704Z,46.50
2023-03-02T19:52:02.986Z,47.10
2023-03-02T19:54:31.031Z,48.00
2023-03-02T19:56:59.395Z,49.00
2023-03-02T19:59:27.384Z,48.60
2023-03-02T20:01:56.746Z,47.80
2023-03-02T20:04:24.733Z,46.40
2023-03-02T20:06:52.800Z,45.80
2023-03-02T20:09:21.444Z,45.90
2023-03-02T20:11:49.388Z,45.70
2023-03-02T20:14:32.788Z,46.00
2023-03-02T20:17:02.939Z,45.80
2023-03-02T20:19:31.215Z,46.20
2023-03-02T20:21:59.449Z,46.00
2023-03-02T20:24:27.451Z,46.10
2023-03-02T20:26:55.690Z,46.30
2023-03-02T20:29:23.689Z,45.60
2023-03-02T20:31:52.108Z,45.00
2023-03-02T20:34:22.068Z,45.80
2023-03-02T20:36:50.983Z,45.90
2023-03-02T20:39:26.019Z,44.90
2023-03-02T20:41:54.222Z,44.50
2023-03-02T20:44:24.236Z,44.40
2023-03-02T20:46:55.927Z,44.30
2023-03-02T20:49:28.855Z,43.60
2023-03-02T20:51:58.510Z,43.30
2023-03-02T20:54:27.570Z,43.40
2023-03-02T20:56:58.015Z,43.80
2023-03-02T20:59:27.438Z,43.70
2023-03-02T21:01:55.825Z,43.50
2023-03-02T21:04:24.203Z,43.70
2023-03-02T21:06:53.062Z,43.60
2023-03-02T21:09:22.677Z,44.00
2023-03-02T21:11:50.813Z,44.80
2023-03-02T21:14:20.533Z,44.40
2023-03-02T21:16:48.811Z,44.60
2023-03-02T21:19:21.429Z,44.40
2023-03-02T21:21:49.943Z,44.70
2023-03-02T21:24:18.053Z,46.10
2023-03-02T21:26:47.855Z,45.30
2023-03-02T21:29:16.737Z,46.40
2023-03-02T21:31:47.813Z,47.10
2023-03-02T21:34:18.903Z,46.70
2023-03-02T21:36:47.569Z,46.50
2023-03-02T21:39:16.509Z,48.60
2023-03-02T21:41:44.685Z,50.10
2023-03-02T21:44:13.435Z,49.90
2023-03-02T21:46:41.603Z,49.40
2023-03-02T21:49:11.243Z,50.10
2023-03-02T21:51:39.339Z,50.20
2023-03-02T21:54:10.065Z,50.80
2023-03-02T21:56:38.768Z,50.10
2023-03-02T21:59:08.694Z,49.40
2023-03-02T22:01:46.787Z,49.80
2023-03-02T22:04:19.830Z,50.60
2023-03-02T22:06:48.278Z,50.30
2023-03-02T22:09:16.340Z,50.10
2023-03-02T22:11:45.620Z,50.80
2023-03-02T22:14:15.210Z,51.10
2023-03-02T22:16:46.451Z,51.00
2023-03-02T22:19:35.396Z,51.80
2023-03-02T22:22:05.511Z,52.10
2023-03-02T22:24:35.179Z,51.30
2023-03-02T22:27:12.162Z,52.20
2023-03-02T22:29:42.945Z,55.00
2023-03-02T22:32:19.620Z,56.20
2023-03-02T22:34:51.512Z,59.40
2023-03-02T22:37:22.708Z,61.10
2023-03-02T22:39:54.789Z,60.10
2023-03-02T22:42:24.879Z,64.70
2023-03-02T22:45:02.905Z,66.20
2023-03-02T22:47:31.035Z,65.20
2023-03-02T22:50:14.924Z,61.50
2023-03-02T22:52:44.682Z,63.10
2023-03-02T22:55:36.908Z,65.10
2023-03-02T22:58:40.418Z,67.00
2023-03-02T23:01:21.220Z,65.80
2023-03-02T23:03:51.757Z,63.20
2023-03-02T23:06:29.516Z,62.40
2023-03-02T23:08:59.874Z,62.70
2023-03-02T23:11:29.672Z,63.10
2023-03-02T23:13:57.748Z,62.90
2023-03-02T23:16:28.374Z,63.10
2023-03-02T23:18:59.476Z,63.70
2023-03-02T23:21:34.531Z,64.70
2023-03-02T23:24:02.791Z,65.50
2023-03-02T23:26:32.396Z,66.90
2023-03-02T23:29:00.988Z,66.90
2023-03-02T23:31:29.071Z,67.30
2023-03-02T23:33:57.186Z,68.00
2023-03-02T23:36:26.499Z,69.40
2023-03-02T23:38:55.864Z,71.90
2023-03-02T23:41:23.931Z,72.60
2023-03-02T23:43:51.887Z,79.60
2023-03-02T23:46:21.868Z,81.10
2023-03-02T23:48:51.888Z,82.90
2023-03-02T23:51:20.102Z,85.90
2023-03-02T23:53:48.227Z,88.60
2023-03-02T23:56:17.603Z,90.10
2023-03-02T23:58:45.872Z,92.80
